Time;durP1;ratioP1;P1;durP2;ratioP2;P2;SDS_P1;SDS_P2;PMS_P1;PMS_P2;Temp;Humidity;BMP_temperature;BMP_pressure;BME280_temperature;BME280_humidity;BME280_pressure;Samples;Min_cycle;Max_cycle;Signal;HPM_P1;HPM_P2
2022/03/12 00:01:43;;;;;;;15.88;10.77;;;2.00;42.10;;;;;;5055046;28;20240;-63
2022/03/12 00:04:11;;;;;;;15.02;11.13;;;2.00;42.20;;;;;;5055424;28;20281;-63
2022/03/12 00:06:38;;;;;;;18.25;11.95;;;2.00;42.70;;;;;;5072731;28;20225;-63
2022/03/12 00:09:05;;;;;;;17.60;11.15;;;2.00;42.60;;;;;;5074623;28;20220;-63
2022/03/12 00:11:34;;;;;;;20.55;11.90;;;2.10;42.70;;;;;;5074681;28;20232;-65
2022/03/12 00:14:06;;;;;;;17.30;10.63;;;2.10;42.50;;;;;;5075346;28;20243;-63
2022/03/12 00:16:33;;;;;;;17.70;11.80;;;2.10;42.50;;;;;;5074422;28;20186;-63
2022/03/12 00:19:03;;;;;;;15.88;10.60;;;2.10;42.40;;;;;;5074964;28;20528;-66
2022/03/12 00:21:34;;;;;;;17.05;12.30;;;2.00;42.60;;;;;;5074775;28;20273;-64
2022/03/12 00:24:01;;;;;;;16.48;10.80;;;2.10;42.90;;;;;;5075064;28;20200;-63
2022/03/12 00:26:31;;;;;;;19.95;12.75;;;2.00;42.80;;;;;;5075276;28;20209;-63
2022/03/12 00:28:59;;;;;;;15.82;10.25;;;1.90;42.60;;;;;;5074956;28;20201;-63
2022/03/12 00:31:28;;;;;;;16.55;10.20;;;1.90;43.00;;;;;;5055232;28;20198;-63
2022/03/12 00:33:55;;;;;;;15.88;10.98;;;1.90;43.00;;;;;;5067046;28;20205;-63
2022/03/12 00:36:23;;;;;;;22.45;11.57;;;1.90;43.30;;;;;;5073876;28;20578;-63
2022/03/12 00:38:50;;;;;;;14.30;10.88;;;1.80;42.90;;;;;;5073862;28;20247;-63
2022/03/12 00:41:18;;;;;;;21.27;11.93;;;1.70;42.80;;;;;;5075110;28;20274;-63
2022/03/12 00:43:45;;;;;;;21.30;13.80;;;1.70;42.70;;;;;;5074847;28;20464;-63
2022/03/12 00:46:14;;;;;;;19.50;10.40;;;1.50;42.90;;;;;;5074580;28;20672;-63
2022/03/12 00:48:42;;;;;;;24.95;13.07;;;1.40;43.20;;;;;;5074849;28;20194;-63
2022/03/12 00:51:10;;;;;;;20.60;12.55;;;1.40;43.10;;;;;;5074425;28;20236;-63
2022/03/12 00:53:38;;;;;;;28.55;13.30;;;1.30;43.30;;;;;;5074632;28;20280;-63
2022/03/12 00:56:06;;;;;;;17.88;12.38;;;1.30;43.40;;;;;;5074481;28;20213;-63
2022/03/12 00:58:34;;;;;;;21.45;11.95;;;1.30;44.10;;;;;;5073818;28;20190;-63
2022/03/12 01:01:02;;;;;;;17.17;10.70;;;1.30;43.90;;;;;;5073723;28;20186;-64
2022/03/12 01:03:30;;;;;;;19.25;11.70;;;1.20;43.20;;;;;;5074541;28;20258;-62
2022/03/12 01:06:01;;;;;;;19.05;12.25;;;1.10;42.90;;;;;;5073104;28;20213;-63
2022/03/12 01:08:30;;;;;;;22.88;12.88;;;1.00;43.70;;;;;;5073718;28;20189;-63
2022/03/12 01:10:59;;;;;;;23.23;13.85;;;1.00;45.00;;;;;;5074429;28;20213;-63
2022/03/12 01:13:27;;;;;;;19.40;12.30;;;0.90;44.50;;;;;;5074384;28;20253;-63
2022/03/12 01:15:55;;;;;;;17.50;10.95;;;0.70;44.80;;;;;;5074255;28;20592;-63
2022/03/12 01:18:23;;;;;;;16.48;11.30;;;0.60;45.30;;;;;;5074483;28;20235;-63
2022/03/12 01:20:52;;;;;;;18.38;11.82;;;0.60;45.20;;;;;;5073946;28;20205;-63
2022/03/12 01:23:23;;;;;;;28.23;13.35;;;0.60;45.40;;;;;;5074212;28;20189;-63
2022/03/12 01:25:51;;;;;;;20.90;11.10;;;0.60;46.80;;;;;;5073999;28;20221;-63
2022/03/12 01:28:20;;;;;;;17.60;11.05;;;0.60;47.80;;;;;;5083022;28;20185;-64
2022/03/12 01:30:47;;;;;;;19.55;10.90;;;0.60;47.00;;;;;;5081987;28;20330;-63
2022/03/12 01:33:14;;;;;;;22.15;12.60;;;0.60;47.10;;;;;;5073951;28;20575;-63
2022/03/12 01:35:42;;;;;;;18.88;13.35;;;0.60;46.50;;;;;;5073140;28;20213;-63
2022/03/12 01:38:10;;;;;;;18.40;10.88;;;0.50;46.80;;;;;;5074025;28;20193;-63
2022/03/12 01:40:37;;;;;;;22.95;12.68;;;0.50;47.00;;;;;;5073255;28;20191;-63
2022/03/12 01:43:05;;;;;;;16.30;11.27;;;0.50;47.30;;;;;;5073526;28;20522;-63
2022/03/12 01:45:35;;;;;;;20.15;11.40;;;0.50;46.90;;;;;;5073872;28;20190;-63
2022/03/12 01:48:04;;;;;;;15.40;11.07;;;0.50;46.90;;;;;;5073285;28;20185;-63
2022/03/12 01:50:33;;;;;;;18.40;12.13;;;0.50;46.80;;;;;;5073756;28;20196;-63
2022/03/12 01:53:02;;;;;;;21.42;12.02;;;0.40;47.10;;;;;;5073438;28;20636;-63
2022/03/12 01:55:31;;;;;;;16.48;10.90;;;0.50;47.50;;;;;;5073544;28;20217;-63
2022/03/12 01:58:00;;;;;;;16.42;11.05;;;0.50;47.90;;;;;;5073572;28;20196;-63
2022/03/12 02:00:27;;;;;;;15.73;10.70;;;0.60;47.80;;;;;;5073194;28;20243;-63
2022/03/12 02:02:55;;;;;;;15.75;9.73;;;0.70;47.70;;;;;;5073328;28;20251;-63
2022/03/12 02:05:27;;;;;;;19.58;10.13;;;0.70;47.80;;;;;;5073041;28;20185;-63
2022/03/12 02:07:56;;;;;;;16.73;11.05;;;0.70;46.50;;;;;;5073411;28;20193;-63
2022/03/12 02:10:24;;;;;;;23.92;12.43;;;0.70;46.60;;;;;;5073285;28;20648;-62
2022/03/12 02:12:52;;;;;;;17.67;11.10;;;0.70;46.70;;;;;;5073518;28;20217;-63
2022/03/12 02:15:22;;;;;;;20.35;12.13;;;0.70;47.20;;;;;;5072537;28;20709;-63
2022/03/12 02:17:51;;;;;;;19.05;10.93;;;0.60;47.30;;;;;;5072964;28;20193;-63
2022/03/12 02:20:21;;;;;;;27.55;11.43;;;0.70;47.50;;;;;;5072731;28;20186;-63
2022/03/12 02:22:53;;;;;;;22.05;11.98;;;0.70;47.60;;;;;;5073102;28;20186;-63
2022/03/12 02:25:29;;;;;;;16.45;10.00;;;0.60;48.00;;;;;;5072271;28;20189;-62
2022/03/12 02:27:57;;;;;;;20.77;11.73;;;0.60;48.10;;;;;;5073308;28;20190;-63
2022/03/12 02:30:28;;;;;;;18.77;12.38;;;0.50;48.20;;;;;;5072542;28;20194;-63
2022/03/12 02:32:58;;;;;;;16.60;11.35;;;0.50;48.40;;;;;;5073164;28;20319;-62
2022/03/12 02:35:26;;;;;;;16.92;10.93;;;0.40;48.50;;;;;;5072439;28;20189;-64
2022/03/12 02:37:53;;;;;;;19.77;12.80;;;0.40;49.30;;;;;;5072838;28;20576;-63
2022/03/12 02:40:21;;;;;;;17.90;11.88;;;0.40;49.70;;;;;;5072424;28;20240;-63
2022/03/12 02:42:51;;;;;;;18.67;12.80;;;0.40;49.60;;;;;;5072801;28;20235;-63
2022/03/12 02:45:20;;;;;;;19.90;10.35;;;0.40;49.70;;;;;;5072195;28;20672;-63
2022/03/12 02:47:49;;;;;;;18.63;12.27;;;0.40;49.50;;;;;;5072406;28;20221;-63
2022/03/12 02:50:17;;;;;;;22.55;12.77;;;0.50;49.40;;;;;;5072220;28;20218;-62
2022/03/12 02:52:45;;;;;;;18.38;11.95;;;0.50;49.30;;;;;;5071976;28;20191;-63
2022/03/12 02:55:14;;;;;;;21.80;12.32;;;0.60;49.30;;;;;;5072184;28;20193;-63
2022/03/12 02:57:42;;;;;;;20.20;12.23;;;0.60;49.40;;;;;;5072466;28;20225;-63
2022/03/12 03:00:12;;;;;;;23.92;13.20;;;0.60;48.90;;;;;;5072231;28;20190;-63
2022/03/12 03:02:41;;;;;;;20.77;11.48;;;0.60;48.80;;;;;;5072426;28;20649;-62
2022/03/12 03:05:14;;;;;;;15.43;10.57;;;0.60;48.90;;;;;;5071859;28;20197;-63
2022/03/12 03:07:41;;;;;;;16.27;11.50;;;0.50;49.10;;;;;;5052344;28;20194;-62
2022/03/12 03:10:10;;;;;;;21.02;10.80;;;0.50;48.90;;;;;;5051938;28;20594;-66
2022/03/12 03:12:38;;;;;;;17.08;12.07;;;0.60;49.10;;;;;;5051985;28;20650;-63
2022/03/12 03:15:06;;;;;;;19.23;11.73;;;0.60;49.10;;;;;;5052099;28;20198;-63
2022/03/12 03:17:35;;;;;;;18.73;11.23;;;0.60;49.10;;;;;;5071371;28;20210;-63
2022/03/12 03:20:02;;;;;;;18.08;11.57;;;0.60;48.60;;;;;;5071994;28;20264;-63
2022/03/12 03:22:29;;;;;;;24.40;13.25;;;0.60;48.70;;;;;;5071408;28;20182;-64
2022/03/12 03:24:57;;;;;;;17.05;11.45;;;0.60;48.00;;;;;;5071849;28;20212;-64
2022/03/12 03:27:24;;;;;;;21.73;12.43;;;0.50;48.20;;;;;;5072206;28;20259;-63
2022/03/12 03:29:51;;;;;;;17.15;12.63;;;0.30;47.80;;;;;;5071816;28;20280;-63
2022/03/12 03:32:18;;;;;;;19.90;11.93;;;0.30;47.80;;;;;;5072171;28;20197;-62
2022/03/12 03:34:47;;;;;;;13.23;10.60;;;0.30;48.20;;;;;;5071508;28;20190;-63
2022/03/12 03:37:14;;;;;;;19.95;12.98;;;0.20;48.20;;;;;;5071565;28;20238;-63
2022/03/12 03:39:41;;;;;;;20.05;12.20;;;0.10;48.50;;;;;;5071860;28;20652;-63
2022/03/12 03:42:08;;;;;;;18.48;11.80;;;0.10;49.00;;;;;;5071887;28;20762;-63
2022/03/12 03:44:35;;;;;;;18.92;9.82;;;0.10;49.70;;;;;;5071437;28;20251;-65
2022/03/12 03:47:02;;;;;;;19.83;12.57;;;0.20;49.70;;;;;;5071973;28;20200;-64
2022/03/12 03:49:29;;;;;;;20.83;12.35;;;0.30;49.70;;;;;;5071417;28;20190;-63
2022/03/12 03:51:58;;;;;;;18.38;10.88;;;0.30;49.80;;;;;;5071928;28;20671;-63
2022/03/12 03:54:26;;;;;;;13.50;10.60;;;0.40;49.50;;;;;;5071429;28;20186;-63
2022/03/12 03:56:53;;;;;;;17.67;11.98;;;0.50;49.80;;;;;;5071851;28;20274;-63
2022/03/12 03:59:20;;;;;;;14.07;10.65;;;0.50;49.90;;;;;;5071509;28;20193;-63
2022/03/12 04:01:49;;;;;;;18.70;10.70;;;0.50;49.80;;;;;;5071866;28;20262;-63
2022/03/12 04:04:16;;;;;;;16.33;11.57;;;0.60;49.40;;;;;;5071265;28;20186;-63
2022/03/12 04:06:43;;;;;;;16.45;11.85;;;0.60;49.90;;;;;;5071973;28;20280;-63
2022/03/12 04:09:11;;;;;;;17.90;10.85;;;0.60;49.50;;;;;;5071387;28;20274;-62
2022/03/12 04:11:38;;;;;;;17.08;11.43;;;0.50;49.40;;;;;;5071689;28;20190;-63
2022/03/12 04:14:06;;;;;;;23.75;13.55;;;0.60;49.60;;;;;;5071532;28;20236;-63
2022/03/12 04:16:34;;;;;;;17.58;11.65;;;0.60;49.60;;;;;;5071290;28;20218;-63
2022/03/12 04:19:03;;;;;;;17.73;11.23;;;0.60;49.50;;;;;;5071524;28;20644;-63
2022/03/12 04:21:30;;;;;;;20.65;12.55;;;0.70;49.70;;;;;;5071983;28;20194;-63
2022/03/12 04:23:57;;;;;;;25.30;12.70;;;0.70;49.80;;;;;;5071797;28;20197;-63
2022/03/12 04:26:26;;;;;;;17.52;11.45;;;0.70;49.60;;;;;;5072004;28;20288;-63
2022/03/12 04:28:53;;;;;;;19.60;12.35;;;0.70;49.40;;;;;;5071711;28;20243;-63
2022/03/12 04:31:21;;;;;;;18.88;11.98;;;0.70;49.20;;;;;;5071340;28;20188;-63
2022/03/12 04:33:48;;;;;;;20.33;12.27;;;0.70;49.00;;;;;;5073758;28;20194;-63
2022/03/12 04:36:15;;;;;;;20.38;12.32;;;0.70;49.40;;;;;;5074961;28;20209;-63
2022/03/12 04:38:42;;;;;;;17.80;12.48;;;0.60;49.10;;;;;;5075120;28;20239;-63
2022/03/12 04:41:12;;;;;;;18.90;11.55;;;0.60;49.20;;;;;;5074820;28;20232;-63
2022/03/12 04:43:42;;;;;;;22.45;14.02;;;0.60;49.40;;;;;;5075260;28;20190;-63
2022/03/12 04:46:10;;;;;;;17.38;11.63;;;0.60;49.70;;;;;;5074806;28;20181;-63
2022/03/12 04:48:37;;;;;;;22.88;13.25;;;0.60;49.70;;;;;;5075059;28;20296;-63
2022/03/12 04:51:04;;;;;;;19.67;12.35;;;0.60;49.90;;;;;;5074911;28;20640;-63
2022/03/12 04:53:32;;;;;;;22.23;12.27;;;0.50;50.00;;;;;;5075044;28;20185;-63
2022/03/12 04:55:59;;;;;;;18.10;12.07;;;0.50;50.20;;;;;;5074373;28;20269;-63
2022/03/12 04:58:26;;;;;;;19.20;12.57;;;0.40;50.50;;;;;;5075067;28;20190;-63
2022/03/12 05:00:55;;;;;;;18.58;11.52;;;0.40;50.80;;;;;;5074524;28;20276;-63
2022/03/12 05:03:23;;;;;;;17.90;11.00;;;0.40;51.10;;;;;;5074943;28;20193;-63
2022/03/12 05:05:53;;;;;;;18.92;12.68;;;0.40;51.00;;;;;;5074453;28;20190;-63
2022/03/12 05:08:22;;;;;;;18.50;10.48;;;0.50;50.60;;;;;;5074786;28;20584;-63
2022/03/12 05:10:51;;;;;;;16.92;10.88;;;0.50;50.60;;;;;;5074654;28;20192;-63
2022/03/12 05:13:22;;;;;;;17.33;10.50;;;0.40;50.30;;;;;;5073980;28;20217;-62
2022/03/12 05:15:50;;;;;;;16.77;11.38;;;0.40;50.80;;;;;;5074795;28;20189;-63
2022/03/12 05:18:23;;;;;;;18.30;11.65;;;0.40;50.90;;;;;;5074512;28;20328;-62
2022/03/12 05:20:51;;;;;;;17.10;11.80;;;0.40;50.90;;;;;;5074153;28;20641;-64
2022/03/12 05:23:20;;;;;;;26.35;13.57;;;0.40;50.70;;;;;;5054364;28;20195;-63
2022/03/12 05:25:48;;;;;;;18.17;12.25;;;0.50;51.10;;;;;;5054362;28;20202;-63
2022/03/12 05:28:17;;;;;;;21.75;12.38;;;0.50;51.40;;;;;;5073539;28;20212;-63
2022/03/12 05:30:45;;;;;;;14.75;10.68;;;0.50;51.70;;;;;;5074322;28;20200;-63
2022/03/12 05:33:12;;;;;;;19.02;12.23;;;0.60;51.60;;;;;;5073759;28;20284;-63
2022/03/12 05:35:42;;;;;;;17.98;12.27;;;0.60;51.30;;;;;;5074333;28;20190;-63
2022/03/12 05:38:11;;;;;;;22.10;12.68;;;0.60;51.00;;;;;;5072517;28;20221;-63
2022/03/12 05:40:40;;;;;;;43.20;12.98;;;0.60;51.10;;;;;;5073826;28;20270;-63
2022/03/12 05:43:09;;;;;;;22.05;13.55;;;0.60;50.80;;;;;;5073881;28;20193;-63
2022/03/12 05:45:37;;;;;;;20.17;11.63;;;0.70;50.70;;;;;;5072532;28;20235;-64
2022/03/12 05:48:06;;;;;;;20.98;12.90;;;0.70;50.70;;;;;;5073805;28;20275;-63
2022/03/12 05:50:33;;;;;;;13.93;10.55;;;0.80;50.90;;;;;;5073398;28;20190;-63
2022/03/12 05:53:02;;;;;;;21.50;12.18;;;0.80;50.90;;;;;;5073841;28;20189;-63
2022/03/12 05:55:29;;;;;;;16.35;11.18;;;0.80;50.70;;;;;;5073918;28;20243;-63
2022/03/12 05:57:57;;;;;;;19.90;11.90;;;0.80;50.40;;;;;;5073392;28;20684;-63
2022/03/12 06:00:24;;;;;;;19.63;13.07;;;0.80;50.60;;;;;;5073457;28;20265;-63
2022/03/12 06:02:52;;;;;;;25.85;15.27;;;0.80;50.70;;;;;;5073360;28;20730;-63
2022/03/12 06:05:21;;;;;;;18.00;12.43;;;0.80;50.60;;;;;;5073746;28;20260;-63
2022/03/12 06:07:49;;;;;;;24.67;14.60;;;0.90;50.90;;;;;;5073017;28;20193;-67
2022/03/12 06:10:20;;;;;;;23.63;13.35;;;1.00;51.10;;;;;;5059114;28;20190;-63
2022/03/12 06:12:49;;;;;;;26.70;14.40;;;1.10;50.90;;;;;;5073332;28;20272;-63
2022/03/12 06:15:18;;;;;;;24.58;14.13;;;1.10;51.00;;;;;;5073382;28;20190;-63
2022/03/12 06:17:46;;;;;;;22.25;15.70;;;1.30;51.30;;;;;;5073368;28;20225;-63
2022/03/12 06:20:14;;;;;;;18.88;14.70;;;1.30;51.10;;;;;;5072369;28;20186;-64
2022/03/12 06:22:43;;;;;;;21.63;14.02;;;1.40;51.20;;;;;;5073361;28;20190;-63
2022/03/12 06:25:12;;;;;;;22.63;13.23;;;1.50;50.70;;;;;;5072897;28;20190;-63
2022/03/12 06:27:42;;;;;;;22.00;12.93;;;1.60;50.60;;;;;;5073268;28;20193;-63
2022/03/12 06:30:12;;;;;;;18.80;12.57;;;1.70;50.70;;;;;;5072520;28;20185;-63
2022/03/12 06:32:42;;;;;;;17.65;11.50;;;1.70;51.00;;;;;;5073246;28;20244;-63
2022/03/12 06:35:12;;;;;;;20.63;12.55;;;1.80;51.20;;;;;;5072951;28;20264;-63
2022/03/12 06:37:39;;;;;;;17.20;11.75;;;1.90;51.10;;;;;;5072849;28;20290;-63
2022/03/12 06:40:09;;;;;;;16.95;11.85;;;2.10;51.20;;;;;;5071655;28;20251;-63
2022/03/12 06:42:37;;;;;;;20.60;13.57;;;2.40;51.00;;;;;;5072871;28;20194;-63
2022/03/12 06:45:08;;;;;;;24.00;14.85;;;2.70;50.30;;;;;;5072816;28;20193;-64
2022/03/12 06:47:36;;;;;;;20.05;14.18;;;3.00;50.00;;;;;;5073361;28;20189;-65
2022/03/12 06:50:06;;;;;;;23.92;13.55;;;3.40;50.30;;;;;;5072105;28;20212;-63
2022/03/12 06:52:33;;;;;;;17.67;12.82;;;4.00;50.10;;;;;;5073141;28;20224;-63
2022/03/12 06:55:00;;;;;;;23.33;13.25;;;4.50;49.60;;;;;;5071999;28;20664;-64
2022/03/12 06:57:27;;;;;;;20.55;13.35;;;5.10;48.50;;;;;;5072337;28;20695;-63
2022/03/12 06:59:58;;;;;;;18.55;12.80;;;5.80;46.80;;;;;;5072037;28;20247;-63
2022/03/12 07:02:27;;;;;;;21.83;14.82;;;6.40;44.70;;;;;;5072993;28;20193;-63
2022/03/12 07:04:54;;;;;;;20.67;13.07;;;7.10;43.30;;;;;;5072076;28;20667;-63
2022/03/12 07:07:21;;;;;;;22.15;14.02;;;7.90;41.70;;;;;;5072693;28;20243;-64
2022/03/12 07:09:48;;;;;;;24.80;15.13;;;8.70;39.30;;;;;;5072422;28;20197;-64
2022/03/12 07:12:16;;;;;;;23.23;14.15;;;9.60;37.30;;;;;;5072580;28;20245;-64
2022/03/12 07:14:43;;;;;;;19.33;13.27;;;10.90;36.10;;;;;;5072104;28;20257;-63
2022/03/12 07:17:11;;;;;;;15.45;13.02;;;12.30;32.80;;;;;;5072924;28;20206;-64
2022/03/12 07:19:40;;;;;;;19.33;13.10;;;13.40;30.80;;;;;;5072552;28;20186;-64
2022/03/12 07:22:07;;;;;;;17.13;13.23;;;14.60;28.80;;;;;;5072284;28;20190;-62
2022/03/12 07:24:35;;;;;;;15.43;12.20;;;15.90;28.60;;;;;;5071916;28;20188;-62
2022/03/12 07:27:02;;;;;;;16.40;12.75;;;17.20;27.20;;;;;;5072283;28;20193;-62
2022/03/12 07:29:31;;;;;;;16.05;13.82;;;18.20;24.10;;;;;;5072197;28;20197;-63
2022/03/12 07:31:59;;;;;;;15.57;12.45;;;19.10;23.90;;;;;;5072530;28;20273;-63
2022/03/12 07:34:26;;;;;;;17.50;13.57;;;20.10;23.30;;;;;;5072178;28;20264;-62
2022/03/12 07:36:55;;;;;;;15.50;13.17;;;21.20;22.60;;;;;;5072366;28;20451;-62
2022/03/12 07:39:22;;;;;;;15.00;12.50;;;22.40;21.20;;;;;;5071827;28;20428;-62
2022/03/12 07:41:50;;;;;;;17.90;16.07;;;23.50;19.50;;;;;;5072249;28;20475;-63
2022/03/12 07:44:17;;;;;;;82.60;53.23;;;24.40;19.10;;;;;;5072353;28;21453;-63
2022/03/12 07:46:45;;;;;;;63.93;49.07;;;25.40;19.70;;;;;;5071109;28;20950;-63
2022/03/12 07:49:13;;;;;;;32.70;25.37;;;26.40;17.80;;;;;;5069886;28;20498;-62
2022/03/12 07:51:43;;;;;;;25.07;20.20;;;27.30;17.50;;;;;;5071087;28;20463;-63
2022/03/12 07:54:13;;;;;;;29.37;26.17;;;28.10;16.70;;;;;;5067664;28;20532;-62
2022/03/12 07:56:42;;;;;;;19.43;17.33;;;28.80;15.90;;;;;;5069903;28;20440;-62
2022/03/12 07:59:10;;;;;;;19.00;12.70;;;29.30;14.50;;;;;;5069579;28;20440;-65
2022/03/12 08:01:37;;;;;;;33.63;28.50;;;29.70;14.90;;;;;;5070024;28;20473;-62
2022/03/12 08:04:06;;;;;;;18.93;16.93;;;30.20;14.40;;;;;;5069953;28;21137;-63
2022/03/12 08:06:34;;;;;;;22.17;18.40;;;30.60;13.90;;;;;;5070100;28;20435;-63
2022/03/12 08:09:01;;;;;;;18.87;14.17;;;30.90;13.20;;;;;;5072669;28;20588;-65
2022/03/12 08:11:31;;;;;;;19.13;17.23;;;31.30;13.00;;;;;;5077192;28;20432;-66
2022/03/12 08:14:02;;;;;;;19.70;16.80;;;31.60;12.30;;;;;;5072491;28;20827;-62
2022/03/12 08:16:29;;;;;;;25.20;22.43;;;31.70;12.40;;;;;;5073250;28;20428;-63
2022/03/12 08:18:57;;;;;;;17.10;13.40;;;31.90;12.20;;;;;;5073753;28;20869;-63
2022/03/12 08:21:24;;;;;;;21.77;19.37;;;32.20;11.70;;;;;;5073825;28;20431;-63
2022/03/12 08:23:51;;;;;;;26.40;23.60;;;32.60;12.00;;;;;;5073738;28;20439;-63
2022/03/12 08:26:19;;;;;;;17.77;15.30;;;33.10;11.40;;;;;;5072942;28;20441;-63
2022/03/12 08:28:48;;;;;;;24.97;21.17;;;33.80;11.70;;;;;;5073989;28;20479;-63
2022/03/12 08:31:15;;;;;;;27.93;23.00;;;34.60;11.30;;;;;;5074538;28;20817;-63
2022/03/12 08:33:43;;;;;;;16.03;14.43;;;35.50;10.90;;;;;;5073430;28;20438;-63
2022/03/12 08:36:10;;;;;;;25.67;20.57;;;36.30;10.60;;;;;;5070155;28;20482;-64
2022/03/12 08:38:38;;;;;;;21.53;19.17;;;37.00;9.50;;;;;;5074291;28;20540;-64
2022/03/12 08:41:06;;;;;;;17.90;16.20;;;37.50;9.00;;;;;;5074244;28;20463;-63
2022/03/12 08:43:33;;;;;;;15.00;13.50;;;37.90;8.90;;;;;;5073846;28;20824;-63
2022/03/12 08:46:03;;;;;;;15.73;14.23;;;38.20;7.90;;;;;;5074467;28;20509;-63
2022/03/12 08:48:31;;;;;;;23.80;20.33;;;38.40;8.20;;;;;;5072986;28;20888;-64
2022/03/12 08:50:58;;;;;;;16.53;14.97;;;39.00;8.20;;;;;;5073666;28;20435;-65
2022/03/12 08:53:24;;;;;;;16.37;14.87;;;39.50;7.40;;;;;;5064936;28;20471;-64
2022/03/12 08:55:52;;;;;;;17.30;15.60;;;39.80;7.80;;;;;;5072600;28;20502;-63
2022/03/12 08:58:23;;;;;;;16.50;14.90;;;40.50;7.10;;;;;;5071648;28;20607;-63
2022/03/12 09:00:52;;;;;;;18.50;16.70;;;40.30;7.00;;;;;;5073079;28;20440;-64
2022/03/12 09:03:21;;;;;;;16.73;15.03;;;40.40;6.70;;;;;;5072782;28;20847;-64
2022/03/12 09:05:49;;;;;;;18.67;16.60;;;40.60;6.60;;;;;;5069908;28;20447;-64
2022/03/12 09:08:17;;;;;;;16.67;15.10;;;41.00;6.70;;;;;;5062597;28;20513;-66
2022/03/12 09:10:45;;;;;;;17.27;15.50;;;41.30;6.20;;;;;;5071608;28;20435;-63
2022/03/12 09:13:13;;;;;;;17.53;15.77;;;41.60;5.80;;;;;;5070362;28;20472;-64
2022/03/12 09:15:41;;;;;;;17.80;16.10;;;41.80;6.10;;;;;;5071922;28;20531;-64
2022/03/12 09:18:09;;;;;;;17.03;15.33;;;41.80;5.80;;;;;;5070210;28;20998;-64
2022/03/12 09:20:43;;;;;;;18.73;16.93;;;42.10;6.20;;;;;;5070979;28;20950;-64
2022/03/12 09:23:10;;;;;;;16.63;15.13;;;42.80;5.80;;;;;;5071366;28;20452;-64
2022/03/12 09:25:37;;;;;;;19.60;16.50;;;43.20;6.00;;;;;;5071436;28;20440;-65
2022/03/12 09:28:05;;;;;;;20.23;18.47;;;43.90;5.40;;;;;;5072089;28;20801;-64
2022/03/12 09:30:32;;;;;;;18.23;16.13;;;44.60;5.60;;;;;;5071670;28;20436;-64
2022/03/12 09:32:59;;;;;;;17.13;15.53;;;45.20;5.30;;;;;;5071884;28;20440;-66
2022/03/12 09:35:28;;;;;;;18.33;16.17;;;45.70;5.10;;;;;;5071197;28;20427;-63
2022/03/12 09:37:57;;;;;;;15.80;14.40;;;45.80;4.60;;;;;;5071420;28;20600;-64
2022/03/12 09:40:24;;;;;;;15.67;14.37;;;45.70;4.50;;;;;;5071048;28;20432;-64
2022/03/12 09:42:52;;;;;;;17.47;15.77;;;45.40;4.10;;;;;;5071417;28;20436;-64
2022/03/12 09:45:25;;;;;;;17.00;15.30;;;45.20;4.40;;;;;;5070712;28;20534;-64
2022/03/12 09:47:52;;;;;;;17.67;16.00;;;45.50;4.70;;;;;;5071250;28;20446;-64
2022/03/12 09:50:20;;;;;;;18.40;16.50;;;45.90;4.10;;;;;;5070530;28;20432;-65
2022/03/12 09:52:48;;;;;;;17.40;15.83;;;46.30;4.50;;;;;;5070934;28;20444;-64
2022/03/12 09:55:19;;;;;;;16.93;15.23;;;46.90;4.20;;;;;;5070797;28;20946;-64
2022/03/12 09:57:47;;;;;;;17.20;15.47;;;47.60;4.10;;;;;;5070812;28;20443;-64
2022/03/12 10:00:15;;;;;;;15.90;14.37;;;48.20;3.60;;;;;;5066532;28;20439;-69
2022/03/12 10:02:43;;;;;;;16.47;14.97;;;48.70;3.40;;;;;;5070626;28;20960;-64
2022/03/12 10:05:13;;;;;;;16.33;14.83;;;49.00;3.10;;;;;;5070504;28;20997;-64
2022/03/12 10:07:41;;;;;;;14.60;13.27;;;49.30;2.90;;;;;;5070169;28;20937;-64
2022/03/12 10:10:14;;;;;;;16.17;14.67;;;49.30;2.40;;;;;;5070316;28;20962;-64
2022/03/12 10:12:42;;;;;;;13.77;12.67;;;49.50;2.30;;;;;;5070790;28;20540;-64
2022/03/12 10:15:12;;;;;;;14.43;13.23;;;49.50;1.60;;;;;;5069677;28;20439;-64
2022/03/12 10:17:40;;;;;;;15.90;14.50;;;49.80;1.70;;;;;;5070732;28;20998;-64
2022/03/12 10:20:10;;;;;;;16.47;15.00;;;50.00;2.20;;;;;;5070174;28;20442;-65
2022/03/12 10:22:37;;;;;;;14.60;13.30;;;50.10;2.00;;;;;;5069766;28;20450;-64
2022/03/12 10:25:06;;;;;;;15.17;13.87;;;50.10;2.10;;;;;;5070067;28;20529;-64
2022/03/12 10:27:34;;;;;;;16.67;15.17;;;50.10;2.00;;;;;;5070826;28;20793;-64
2022/03/12 10:30:04;;;;;;;14.00;12.70;;;49.90;2.10;;;;;;5069328;28;20449;-67
2022/03/12 10:32:34;;;;;;;16.07;14.47;;;50.20;1.80;;;;;;5066200;28;20438;-65
2022/03/12 10:35:03;;;;;;;15.03;13.63;;;50.70;1.90;;;;;;5070750;28;20498;-65
2022/03/12 10:37:32;;;;;;;14.87;13.20;;;51.10;1.80;;;;;;5069303;28;20883;-65
2022/03/12 10:40:08;;;;;;;14.70;13.30;;;51.20;1.40;;;;;;5068989;28;21009;-64
2022/03/12 10:42:37;;;;;;;13.13;11.83;;;51.20;1.30;;;;;;5069289;28;20431;-66
2022/03/12 10:45:08;;;;;;;15.20;13.70;;;51.00;1.30;;;;;;5069025;28;20435;-64
2022/03/12 10:47:41;;;;;;;14.50;13.20;;;50.10;1.10;;;;;;5069921;28;20923;-66
2022/03/12 10:50:14;;;;;;;14.37;13.17;;;49.70;1.10;;;;;;5067979;28;20810;-65
2022/03/12 10:52:49;;;;;;;13.27;11.97;;;49.60;1.20;;;;;;5066412;28;20440;-65
2022/03/12 10:55:19;;;;;;;14.80;13.50;;;49.80;1.80;;;;;;5069503;28;20446;-64
2022/03/12 10:57:59;;;;;;;14.10;12.70;;;50.30;1.90;;;;;;5070446;28;20432;-63
2022/03/12 11:00:29;;;;;;;15.07;13.67;;;50.60;1.70;;;;;;5071641;28;20475;-64
2022/03/12 11:02:58;;;;;;;13.30;12.00;;;51.10;1.40;;;;;;5071260;28;20443;-64
2022/03/12 11:05:27;;;;;;;14.87;13.50;;;51.50;1.20;;;;;;5068089;28;20439;-64
2022/03/12 11:08:19;;;;;;;14.30;13.10;;;51.60;1.00;;;;;;5069417;28;20444;-64
2022/03/12 11:10:50;;;;;;;14.10;12.80;;;51.00;1.20;;;;;;5067770;28;20444;-64
2022/03/12 11:13:38;;;;;;;13.50;12.30;;;51.30;1.20;;;;;;5067833;28;20472;-65
2022/03/12 11:16:13;;;;;;;15.03;13.70;;;51.70;1.30;;;;;;5066242;28;20427;-64
2022/03/12 11:18:56;;;;;;;14.70;13.20;;;51.60;1.00;;;;;;5065146;28;20483;-64
2022/03/12 11:21:27;;;;;;;12.80;11.63;;;51.30;1.20;;;;;;5065434;28;21065;-64
2022/03/12 11:23:54;;;;;;;15.13;13.83;;;51.10;1.10;;;;;;5068950;28;20440;-64
2022/03/12 11:26:24;;;;;;;15.63;14.13;;;51.40;1.00;;;;;;5069532;28;20559;-63
2022/03/12 11:28:57;;;;;;;14.23;13.03;;;51.60;1.10;;;;;;5069187;28;20440;-66
2022/03/12 11:34:24;;;;;;;13.70;12.50;;;51.70;1.00;;;;;;5086719;27;20540;-64
2022/03/12 11:37:06;;;;;;;15.80;14.50;;;51.20;1.10;;;;;;5086192;28;20431;-64
2022/03/12 11:39:36;;;;;;;15.40;14.00;;;51.20;1.00;;;;;;5086753;28;20494;-65
2022/03/12 11:42:11;;;;;;;16.47;15.07;;;51.40;1.00;;;;;;5086397;28;21000;-65
2022/03/12 11:44:40;;;;;;;15.53;14.00;;;51.70;1.00;;;;;;5086206;28;20804;-64
2022/03/12 11:47:08;;;;;;;14.90;13.70;;;51.90;1.00;;;;;;5086426;28;20439;-64
2022/03/12 11:49:36;;;;;;;14.70;13.20;;;51.60;1.00;;;;;;5086170;28;20503;-65
2022/03/12 11:52:05;;;;;;;14.70;13.17;;;51.70;1.20;;;;;;5085493;28;20450;-65
2022/03/12 11:54:35;;;;;;;15.67;14.30;;;51.80;1.00;;;;;;5086033;28;20451;-65
2022/03/12 11:57:03;;;;;;;16.17;14.67;;;51.40;1.00;;;;;;5085485;28;20443;-65
2022/03/12 11:59:30;;;;;;;15.33;13.93;;;51.20;1.10;;;;;;5085141;28;20443;-65
2022/03/12 12:02:02;;;;;;;15.50;14.20;;;51.10;1.00;;;;;;5084495;28;20802;-69
2022/03/12 12:04:32;;;;;;;15.63;14.33;;;50.90;1.00;;;;;;5085527;28;20798;-64
2022/03/12 12:07:01;;;;;;;14.70;13.50;;;50.70;1.20;;;;;;5085490;28;20478;-65
2022/03/12 12:09:29;;;;;;;16.13;14.77;;;50.20;1.20;;;;;;5084229;28;20444;-64
2022/03/12 12:11:56;;;;;;;15.80;14.27;;;50.20;1.10;;;;;;5085762;28;20443;-66
2022/03/12 12:14:24;;;;;;;16.50;15.07;;;49.80;1.30;;;;;;5085043;28;20838;-64
2022/03/12 12:16:56;;;;;;;16.33;14.63;;;49.50;1.40;;;;;;5083676;28;20475;-64
2022/03/12 12:19:23;;;;;;;16.57;15.07;;;49.60;1.40;;;;;;5083808;28;20449;-65
2022/03/12 12:21:51;;;;;;;17.10;15.50;;;49.50;1.40;;;;;;5085158;28;20539;-65
2022/03/12 12:24:33;;;;;;;17.33;15.87;;;49.30;1.30;;;;;;5084112;28;20459;-66
2022/03/12 12:27:02;;;;;;;15.60;14.30;;;49.00;1.20;;;;;;5084872;28;20910;-65
2022/03/12 12:29:46;;;;;;;15.60;14.10;;;48.70;1.10;;;;;;5084767;28;20435;-66
2022/03/12 12:32:15;;;;;;;16.40;14.90;;;48.30;1.40;;;;;;5083759;28;20470;-65
2022/03/12 12:35:11;;;;;;;18.20;16.60;;;48.10;1.40;;;;;;5083703;28;20471;-65
2022/03/12 12:37:54;;;;;;;17.40;15.80;;;47.80;1.70;;;;;;5083276;28;20445;-65
2022/03/12 12:40:31;;;;;;;16.70;15.20;;;47.50;1.50;;;;;;5084738;28;20474;-64
2022/03/12 12:43:02;;;;;;;17.97;16.30;;;47.30;1.90;;;;;;5082438;28;20786;-65
2022/03/12 12:45:33;;;;;;;17.90;16.20;;;46.80;1.80;;;;;;5071071;28;20940;-64
2022/03/12 12:48:19;;;;;;;17.37;15.67;;;46.60;1.90;;;;;;5070097;28;20456;-65